Weather at Sydney Kingsford Smith International Airport

Public forecast

Using degrees Celsius for public forecast. Weather courtesy of forecast.io.

Current aviation weather report (METAR) for Sydney Kingsford Smith International Airport

Retrieved 2022/08/12 03:00 UTC (13 minutes ago):

YSSY 120300Z 02012KT 9999 FEW030 BKN083 BKN100 17/10 Q1016

Aviation forecast (TAF) for Sydney Kingsford Smith International Airport

Retrieved 2022-08-12 03:46 UTC (0 seconds ago):

TAF YSSY 120231Z 1203/1306 36014KT 9999 -RA SCT015 BKN040 FM121000 35007KT 9999 -RA SCT014 BKN030 FM121200 30008KT 9999 -RA SCT010 BKN050 FM130200 27009KT 9999 -SHRA SCT040 INTER 1204/1209 5000 RA BKN010 TEMPO 1212/1223 9999 BKN010 PROB30 TEMPO 1302/1306 VRB20G35KT 2000 TSRA BKN012 FEW040CB